Arcola, Pennsylvania
Current Conditions -  °F | °C
As of 4:01 AM on Monday 24 Nov 2014 (Local Time) from KPTW Reporting Station
Light Rain Light Rain  
Wind Chill: 61°   Ceiling: 1400
Heat Index: 61°   Visibility: 5mi
Dew Point: 59°   Wind: 9mph
Humidity: 93%   Direction: 170°S
Pressure: 29.68"   Gusts: 17mph
Location:  40.15°N, 75.46°W
Report Text: KPTW 240901Z AUTO 17008G15KT 130V200 5SM -RA BR SCT008 OVC014 16/15 A2968 RMK AO2 P0001 T01610150
Loading
Personal Weather Stations






























Interactive Weather Map New forecast layout! Learn more

10-Day Weather Forecast

Advertisements
Track Severe Weather on mobile